Time;durP1;ratioP1;P1;durP2;ratioP2;P2;SDS_P1;SDS_P2;PMS_P1;PMS_P2;Temp;Humidity;BMP_temperature;BMP_pressure;BME280_temperature;BME280_humidity;BME280_pressure;Samples;Min_cycle;Max_cycle;Signal;HPM_P1;HPM_P2
2022/11/22 00:00:43;;;;;;;1.20;1.10;;;7.70;99.90;;;8.00;nan;98582.78;5014106;28;20641;-64
2022/11/22 00:03:10;;;;;;;2.60;1.00;;;7.80;99.90;;;7.92;nan;98580.09;5013549;28;20666;-65
2022/11/22 00:05:37;;;;;;;1.40;1.30;;;7.80;99.90;;;7.91;nan;98573.25;5014062;28;20960;-66
2022/11/22 00:08:04;;;;;;;1.43;1.07;;;7.80;99.90;;;7.86;nan;98562.47;5013198;28;21237;-65
2022/11/22 00:10:31;;;;;;;0.57;0.57;;;7.80;99.90;;;8.01;nan;98574.00;5014058;28;20618;-65
2022/11/22 00:12:58;;;;;;;0.80;0.80;;;7.80;99.90;;;8.01;nan;98565.44;5012593;28;20646;-65
2022/11/22 00:15:25;;;;;;;0.73;0.73;;;7.80;99.90;;;7.97;nan;98567.47;5014670;28;20613;-65
2022/11/22 00:17:53;;;;;;;2.43;0.70;;;7.80;99.90;;;7.92;nan;98558.50;5013501;28;20664;-65
2022/11/22 00:20:21;;;;;;;0.70;0.70;;;7.70;99.90;;;8.08;nan;98561.28;5014091;28;20633;-65
2022/11/22 00:22:48;;;;;;;2.87;1.23;;;7.80;99.90;;;7.92;nan;98554.13;4992070;28;20719;-65
2022/11/22 00:25:15;;;;;;;0.80;0.80;;;7.80;99.90;;;7.86;nan;98549.47;5012501;28;21483;-65
2022/11/22 00:27:42;;;;;;;3.33;0.50;;;7.80;99.90;;;7.89;nan;98545.78;5012732;28;20712;-65
2022/11/22 00:30:10;;;;;;;1.20;1.00;;;7.80;99.90;;;7.78;nan;98539.81;5007091;28;21042;-66
2022/11/22 00:32:36;;;;;;;0.50;0.50;;;7.80;99.90;;;8.05;nan;98538.22;5010114;28;20695;-64
2022/11/22 00:35:04;;;;;;;1.47;1.37;;;7.80;99.90;;;7.84;nan;98541.03;5001754;28;20704;-64
2022/11/22 00:37:31;;;;;;;1.47;1.40;;;7.80;99.90;;;7.86;nan;98546.09;4991814;28;20663;-64
2022/11/22 00:39:58;;;;;;;1.37;1.37;;;7.80;99.90;;;8.00;nan;98548.19;4999268;28;20703;-65
2022/11/22 00:42:25;;;;;;;0.83;0.83;;;7.80;99.90;;;7.86;nan;98551.28;5013523;28;20741;-65
2022/11/22 00:44:52;;;;;;;2.90;1.00;;;7.70;99.90;;;7.91;nan;98556.84;5011459;28;20632;-66
2022/11/22 00:47:19;;;;;;;3.20;1.33;;;7.80;99.90;;;8.05;nan;98546.00;5011855;28;20675;-66
2022/11/22 00:49:46;;;;;;;0.80;0.80;;;7.80;99.90;;;7.90;nan;98542.25;5007667;28;21216;-66
2022/11/22 00:52:13;;;;;;;1.43;1.23;;;7.80;99.90;;;7.91;nan;98546.47;5011812;28;21215;-65
2022/11/22 00:54:40;;;;;;;0.53;0.53;;;7.80;99.90;;;7.84;nan;98554.81;5012670;28;20660;-65
2022/11/22 00:57:07;;;;;;;0.97;0.67;;;7.80;99.90;;;7.84;nan;98549.63;5011627;28;20664;-65
2022/11/22 00:59:34;;;;;;;1.00;1.00;;;7.80;99.90;;;7.69;nan;98538.09;5012941;28;20646;-64
2022/11/22 01:02:01;;;;;;;1.00;1.00;;;7.70;99.90;;;7.70;nan;98557.06;5011917;28;20727;-65
2022/11/22 01:04:28;;;;;;;1.40;1.30;;;7.60;99.90;;;7.68;nan;98572.78;5012152;28;20634;-66
2022/11/22 01:06:55;;;;;;;1.43;1.20;;;7.60;99.90;;;7.66;nan;98584.28;5012364;28;20662;-65
2022/11/22 01:09:23;;;;;;;4.80;0.87;;;7.60;99.90;;;7.82;nan;98581.88;5011868;28;20633;-66
2022/11/22 01:11:51;;;;;;;0.93;0.80;;;7.70;99.90;;;7.87;nan;98595.25;5011965;28;20688;-66
2022/11/22 01:14:18;;;;;;;0.90;0.90;;;7.70;99.90;;;7.84;nan;98591.16;5013117;28;20594;-65
2022/11/22 01:16:46;;;;;;;3.30;1.77;;;7.70;99.90;;;7.92;nan;98594.84;5007804;28;20662;-65
2022/11/22 01:19:14;;;;;;;3.23;0.57;;;7.70;99.90;;;7.66;nan;98587.69;5012522;28;20622;-65
2022/11/22 01:21:41;;;;;;;1.60;1.00;;;7.70;99.90;;;7.60;nan;98590.81;5011754;28;20644;-65
2022/11/22 01:24:08;;;;;;;0.77;0.77;;;7.60;99.90;;;7.52;nan;98593.31;4996081;28;20613;-65
2022/11/22 01:26:36;;;;;;;0.50;0.50;;;7.60;99.90;;;7.48;nan;98591.97;5011174;28;20634;-65
2022/11/22 01:29:03;;;;;;;1.10;1.00;;;7.50;99.90;;;7.67;nan;98594.50;4996332;28;20627;-66
2022/11/22 01:31:30;;;;;;;1.13;0.53;;;7.50;99.90;;;7.51;nan;98589.09;5010458;28;20644;-65
2022/11/22 01:33:57;;;;;;;1.30;1.20;;;7.50;99.90;;;7.45;nan;98596.63;5012111;28;20613;-66
2022/11/22 01:36:26;;;;;;;1.37;1.23;;;7.50;99.90;;;7.58;nan;98594.53;5010419;28;20645;-63
2022/11/22 01:38:53;;;;;;;0.67;0.67;;;7.50;99.90;;;7.59;nan;98598.75;5012960;28;20610;-64
2022/11/22 01:41:20;;;;;;;0.90;0.90;;;7.50;99.90;;;7.55;nan;98594.81;5011235;28;21223;-65
2022/11/22 01:43:47;;;;;;;0.70;0.70;;;7.50;99.90;;;7.60;nan;98593.41;5010902;28;20735;-65
2022/11/22 01:46:32;;;;;;;1.17;0.80;;;7.50;99.90;;;7.61;nan;98602.84;5011560;28;20637;-65
2022/11/22 01:49:25;;;;;;;0.40;0.40;;;7.60;99.90;;;7.52;nan;98606.28;4993976;28;20628;-65
2022/11/22 01:52:00;;;;;;;1.47;1.30;;;7.50;99.90;;;7.59;nan;98604.78;5007405;28;20644;-65
2022/11/22 01:54:33;;;;;;;1.50;1.37;;;7.50;99.90;;;7.64;nan;98605.19;4993662;28;21234;-63
2022/11/22 01:57:07;;;;;;;1.90;1.43;;;7.60;99.90;;;7.65;nan;98601.63;4994351;28;21271;-65
2022/11/22 01:59:39;;;;;;;0.40;0.40;;;7.60;99.90;;;7.62;nan;98596.69;5011307;28;20637;-65
2022/11/22 02:02:06;;;;;;;1.10;0.80;;;7.60;99.90;;;7.71;nan;98605.41;4993436;28;21189;-66
2022/11/22 02:04:34;;;;;;;2.47;1.53;;;7.60;99.90;;;7.84;nan;98611.94;5011317;28;20638;-65
2022/11/22 02:07:23;;;;;;;2.93;0.60;;;7.70;99.90;;;7.81;nan;98612.22;4990856;28;20701;-63
2022/11/22 02:09:52;;;;;;;4.37;2.27;;;7.70;99.90;;;7.89;nan;98615.88;4930699;29;20653;-65
2022/11/22 02:12:27;;;;;;;1.43;1.33;;;7.70;99.90;;;7.91;nan;98621.75;4935466;28;20634;-65
2022/11/22 02:14:54;;;;;;;1.57;1.47;;;7.80;99.90;;;7.88;nan;98622.06;4932232;29;21280;-65
2022/11/22 02:17:25;;;;;;;1.60;1.50;;;7.70;99.90;;;7.88;nan;98622.06;4928567;29;20656;-66
2022/11/22 02:19:53;;;;;;;1.80;1.67;;;7.70;99.90;;;7.93;nan;98620.66;4928311;29;20637;-66
2022/11/22 02:22:41;;;;;;;2.73;1.73;;;7.80;99.90;;;7.91;nan;98622.56;4917820;29;20674;-65
2022/11/22 02:25:26;;;;;;;1.40;1.30;;;7.80;99.90;;;7.98;nan;98628.84;4932572;29;20635;-65
2022/11/22 02:27:53;;;;;;;0.90;0.90;;;7.80;99.90;;;8.04;nan;98627.44;4929261;29;21268;-65
2022/11/22 02:30:20;;;;;;;2.03;1.77;;;7.80;99.90;;;8.05;nan;98629.91;4926793;29;21217;-64
2022/11/22 02:32:47;;;;;;;1.50;1.50;;;7.90;99.90;;;8.08;nan;98628.81;4932303;29;20653;-65
2022/11/22 02:35:22;;;;;;;1.63;1.23;;;7.90;99.90;;;7.96;nan;98630.78;4944115;28;20640;-65
2022/11/22 02:37:57;;;;;;;0.67;0.67;;;7.90;99.90;;;7.98;nan;98633.22;4952801;28;21075;-65
2022/11/22 02:40:26;;;;;;;2.00;1.80;;;7.90;99.90;;;7.84;nan;98642.28;4922498;29;20646;-65
2022/11/22 02:43:01;;;;;;;1.30;1.20;;;7.80;99.90;;;7.95;nan;98636.91;4931877;29;21233;-65
2022/11/22 02:45:28;;;;;;;1.30;1.20;;;7.80;99.90;;;7.91;nan;98634.72;4933028;29;20645;-65
2022/11/22 02:48:11;;;;;;;0.77;0.70;;;7.90;99.90;;;8.01;nan;98638.13;4931477;29;20727;-65
2022/11/22 02:50:38;;;;;;;1.93;1.30;;;7.80;99.90;;;7.95;nan;98644.69;4934141;29;21219;-64
2022/11/22 02:53:07;;;;;;;1.30;1.27;;;7.90;99.90;;;7.96;nan;98645.53;4933533;29;21209;-65
2022/11/22 02:55:35;;;;;;;1.43;1.43;;;7.90;99.90;;;7.96;nan;98645.53;4918231;29;20907;-65
2022/11/22 02:58:04;;;;;;;2.30;1.43;;;7.90;99.90;;;8.04;nan;98643.84;4932841;29;21307;-65
2022/11/22 03:00:36;;;;;;;1.53;1.53;;;7.90;99.90;;;8.06;nan;98651.50;4937949;28;20641;-65
2022/11/22 03:03:04;;;;;;;1.63;1.27;;;7.90;99.90;;;8.13;nan;98658.59;4916023;29;20679;-66
2022/11/22 03:05:31;;;;;;;1.10;0.83;;;7.90;99.90;;;8.13;nan;98652.56;4928118;29;20645;-65
2022/11/22 03:07:58;;;;;;;1.33;1.27;;;7.90;99.90;;;8.09;nan;98666.81;4927661;29;20669;-65
2022/11/22 03:10:25;;;;;;;1.77;1.43;;;8.00;99.90;;;8.11;nan;98664.88;4945701;29;20635;-64
2022/11/22 03:12:52;;;;;;;1.13;1.13;;;7.90;99.90;;;8.18;nan;98668.53;4939516;28;20642;-65
2022/11/22 03:15:19;;;;;;;2.07;1.63;;;7.90;99.90;;;8.12;nan;98675.13;4937856;29;20649;-64
2022/11/22 03:17:46;;;;;;;1.53;1.43;;;8.00;99.90;;;8.09;nan;98678.00;4931944;29;20700;-65
2022/11/22 03:20:13;;;;;;;1.43;1.10;;;8.00;99.90;;;7.99;nan;98682.41;4943502;29;20641;-65
2022/11/22 03:22:40;;;;;;;3.90;1.00;;;7.90;99.90;;;7.93;nan;98676.97;4940162;28;20680;-65
2022/11/22 03:25:07;;;;;;;0.80;0.80;;;7.90;99.90;;;7.91;nan;98679.69;4927447;28;20698;-64
2022/11/22 03:27:34;;;;;;;1.87;1.30;;;7.90;99.90;;;8.07;nan;98679.13;4951581;28;20718;-65
2022/11/22 03:30:01;;;;;;;1.27;0.50;;;7.90;99.90;;;8.00;nan;98683.22;4941637;29;20652;-65
2022/11/22 03:32:28;;;;;;;1.57;1.57;;;7.90;99.90;;;8.20;nan;98685.63;4924508;29;21216;-65
2022/11/22 03:34:55;;;;;;;1.07;1.07;;;7.90;99.90;;;8.11;nan;98670.09;4936358;29;20672;-65
2022/11/22 03:37:22;;;;;;;1.37;1.27;;;7.90;99.90;;;8.14;nan;98675.78;4936133;29;20641;-65
2022/11/22 03:39:49;;;;;;;0.90;0.90;;;7.90;99.90;;;8.20;nan;98683.03;4944507;29;20660;-65
2022/11/22 03:42:15;;;;;;;0.83;0.83;;;8.00;99.90;;;8.18;nan;98681.53;4950106;29;20641;-66
2022/11/22 03:44:47;;;;;;;0.93;0.93;;;8.00;99.90;;;8.19;nan;98681.41;4939646;28;21216;-65
2022/11/22 03:47:14;;;;;;;0.87;0.87;;;8.00;99.90;;;8.05;nan;98696.63;4935663;29;20636;-64
2022/11/22 03:49:41;;;;;;;1.43;0.70;;;8.00;99.90;;;8.07;nan;98692.91;4943097;29;21278;-64
2022/11/22 03:52:08;;;;;;;1.13;0.80;;;8.00;99.90;;;8.11;nan;98681.28;4931155;29;20739;-64
2022/11/22 03:54:35;;;;;;;1.33;1.10;;;8.00;99.90;;;8.09;nan;98683.19;4942741;29;20700;-65
2022/11/22 03:57:03;;;;;;;0.80;0.80;;;8.00;99.90;;;8.05;nan;98679.25;4945966;29;21026;-64
2022/11/22 03:59:30;;;;;;;2.13;0.97;;;8.00;99.90;;;8.07;nan;98677.31;4941820;29;20664;-65
2022/11/22 04:01:57;;;;;;;2.43;0.57;;;8.00;99.90;;;8.09;nan;98674.59;4905420;29;20642;-65
2022/11/22 04:04:24;;;;;;;0.70;0.70;;;7.90;99.90;;;8.02;nan;98691.69;4936782;29;20675;-64
2022/11/22 04:06:51;;;;;;;3.03;1.27;;;7.90;99.90;;;8.00;nan;98694.44;4935201;29;20981;-65
2022/11/22 04:09:18;;;;;;;0.53;0.53;;;7.90;99.90;;;7.95;nan;98695.81;4940617;28;20662;-64
2022/11/22 04:11:45;;;;;;;1.40;1.40;;;7.90;99.90;;;8.02;nan;98692.53;4955146;28;20647;-65
2022/11/22 04:16:57;;;;;;;1.03;1.03;;;7.90;99.90;;;8.22;nan;98701.88;4934698;29;20644;-65
2022/11/22 04:19:24;;;;;;;1.10;1.00;;;8.00;99.90;;;8.23;nan;98707.91;4940862;29;20660;-65
2022/11/22 04:21:51;;;;;;;0.70;0.70;;;8.00;99.90;;;8.23;nan;98713.09;4949696;29;20794;-65
2022/11/22 04:27:04;;;;;;;0.90;0.90;;;8.00;99.90;;;8.19;nan;98729.94;4935785;29;20703;-65
2022/11/22 04:29:31;;;;;;;2.63;1.00;;;8.00;99.90;;;8.37;nan;98723.03;4937296;29;20661;-65
2022/11/22 04:34:44;;;;;;;1.40;0.87;;;8.20;99.90;;;8.23;nan;98716.50;4941630;29;20645;-65
2022/11/22 04:37:11;;;;;;;0.70;0.70;;;8.10;99.90;;;8.13;nan;98731.31;4940629;29;20675;-65
2022/11/22 04:39:38;;;;;;;0.60;0.60;;;8.10;99.90;;;8.08;nan;98725.72;4935422;29;20652;-65
2022/11/22 04:45:08;;;;;;;0.80;0.80;;;8.00;99.90;;;8.29;nan;98726.38;4865442;29;21228;-65
2022/11/22 04:53:06;;;;;;;1.37;0.80;;;8.10;99.90;;;8.27;nan;98725.69;4935218;29;20643;-65
2022/11/22 04:55:33;;;;;;;0.70;0.70;;;8.10;99.90;;;8.25;nan;98713.78;4934774;29;20637;-65
2022/11/22 04:58:01;;;;;;;2.30;0.97;;;8.00;99.90;;;8.15;nan;98713.81;4916914;29;20690;-66
2022/11/22 05:00:29;;;;;;;0.83;0.83;;;8.00;99.90;;;7.95;nan;98717.41;4941295;29;20796;-65
2022/11/22 05:02:57;;;;;;;0.97;0.77;;;8.00;99.90;;;7.96;nan;98728.63;4933680;29;21217;-64
2022/11/22 05:05:25;;;;;;;0.47;0.47;;;7.90;99.90;;;7.71;nan;98728.22;4933975;29;20644;-65
2022/11/22 05:07:52;;;;;;;0.70;0.60;;;7.80;99.90;;;7.87;nan;98729.44;4949544;29;21236;-64
2022/11/22 05:10:19;;;;;;;2.13;0.90;;;7.80;99.90;;;7.96;nan;98732.03;4946451;28;20645;-64
2022/11/22 05:12:52;;;;;;;0.63;0.63;;;7.80;99.90;;;8.01;nan;98727.22;4949642;28;20634;-65
2022/11/22 05:15:19;;;;;;;1.23;0.80;;;7.80;99.90;;;7.96;nan;98729.44;4931484;29;21398;-65
2022/11/22 05:17:46;;;;;;;0.80;0.70;;;7.90;99.90;;;8.00;nan;98735.16;4936936;29;20661;-64
2022/11/22 05:20:13;;;;;;;0.73;0.73;;;7.90;99.90;;;8.12;nan;98739.22;4934978;29;20617;-65
2022/11/22 05:25:25;;;;;;;0.83;0.83;;;8.00;99.90;;;8.26;nan;98738.84;4935152;29;21048;-65
2022/11/22 05:27:54;;;;;;;0.77;0.60;;;8.00;99.90;;;8.16;nan;98740.59;4933553;29;21292;-64
2022/11/22 05:30:21;;;;;;;1.30;0.97;;;8.00;99.90;;;8.27;nan;98750.84;4932386;29;21205;-65
2022/11/22 05:32:48;;;;;;;0.60;0.40;;;8.00;99.90;;;8.20;nan;98747.97;4923285;29;20657;-65
2022/11/22 05:35:15;;;;;;;2.97;1.37;;;8.00;99.90;;;8.27;nan;98758.63;4932651;29;20645;-65
2022/11/22 05:37:42;;;;;;;0.87;0.87;;;8.00;99.90;;;8.24;nan;98761.50;4926774;29;21229;-65
2022/11/22 05:40:10;;;;;;;1.80;0.67;;;8.10;99.90;;;8.15;nan;98759.75;4933117;29;21019;-65
2022/11/22 05:42:37;;;;;;;0.70;0.70;;;8.00;99.90;;;8.19;nan;98764.53;4933187;29;21220;-65
2022/11/22 05:45:04;;;;;;;1.23;1.23;;;8.10;99.90;;;8.29;nan;98767.94;4936767;29;20729;-65
2022/11/22 05:47:35;;;;;;;1.10;0.87;;;8.00;99.90;;;8.34;nan;98760.56;4926437;29;20723;-65
2022/11/22 05:50:03;;;;;;;1.57;1.20;;;8.10;99.90;;;8.37;nan;98768.03;4935177;29;21028;-65
2022/11/22 05:52:30;;;;;;;3.60;0.73;;;8.10;99.90;;;8.46;nan;98771.56;4934658;29;21204;-65
2022/11/22 05:54:57;;;;;;;1.53;0.90;;;8.20;99.90;;;8.52;nan;98764.03;4934345;29;20707;-65
2022/11/22 05:57:24;;;;;;;7.17;1.40;;;8.20;99.90;;;8.52;nan;98776.19;4918424;29;20648;-65
2022/11/22 05:59:51;;;;;;;0.83;0.83;;;8.20;99.90;;;8.62;nan;98782.22;4941286;29;21216;-65
2022/11/22 06:02:19;;;;;;;2.73;1.47;;;8.30;99.90;;;8.67;nan;98790.38;4935060;29;20655;-65
2022/11/22 06:04:46;;;;;;;3.40;0.70;;;8.30;99.90;;;8.78;nan;98787.59;4928088;29;20736;-65
2022/11/22 06:07:13;;;;;;;2.10;0.80;;;8.40;99.90;;;8.63;nan;98796.00;4925126;29;20636;-65
2022/11/22 06:09:40;;;;;;;1.23;0.67;;;8.40;99.90;;;8.49;nan;98802.50;4932083;29;20646;-66
2022/11/22 06:12:07;;;;;;;3.47;0.93;;;8.30;99.90;;;8.53;nan;98791.69;4934387;29;20640;-66
2022/11/22 06:14:34;;;;;;;0.70;0.60;;;8.30;99.90;;;8.44;nan;98805.50;4932867;29;20633;-66
2022/11/22 06:17:07;;;;;;;1.63;0.80;;;8.30;99.90;;;8.46;nan;98802.75;4933857;29;20635;-66
2022/11/22 06:19:34;;;;;;;2.70;0.67;;;8.30;99.90;;;8.29;nan;98795.69;4917884;29;20661;-65
2022/11/22 06:22:01;;;;;;;0.50;0.50;;;8.20;99.90;;;8.29;nan;98793.91;4934017;29;20711;-66
2022/11/22 06:24:28;;;;;;;0.53;0.47;;;8.20;99.90;;;8.23;nan;98799.66;4931794;29;20737;-66
2022/11/22 06:26:55;;;;;;;1.13;0.90;;;8.20;99.90;;;8.21;nan;98800.75;4933748;29;21267;-66
2022/11/22 06:29:22;;;;;;;0.57;0.57;;;8.10;99.90;;;8.21;nan;98803.34;4932487;29;20716;-66
2022/11/22 06:31:49;;;;;;;1.27;0.50;;;8.10;99.90;;;8.16;nan;98813.31;4932503;29;20706;-65
2022/11/22 06:34:16;;;;;;;4.20;0.63;;;8.00;99.90;;;8.29;nan;98812.09;4934028;29;20643;-65
2022/11/22 06:36:43;;;;;;;1.47;1.10;;;8.10;99.90;;;8.37;nan;98816.59;4930555;29;20709;-65
2022/11/22 06:39:10;;;;;;;6.67;1.33;;;8.10;99.90;;;8.32;nan;98824.00;4933781;29;20652;-65
2022/11/22 06:41:37;;;;;;;1.87;1.10;;;8.10;99.90;;;8.33;nan;98829.06;4933577;29;20647;-65
2022/11/22 06:44:07;;;;;;;0.80;0.80;;;8.10;99.90;;;8.33;nan;98830.81;4926831;29;21245;-66
2022/11/22 06:46:37;;;;;;;5.93;1.90;;;8.00;99.90;;;8.38;nan;98829.47;4934323;29;20687;-65
2022/11/22 06:49:04;;;;;;;0.90;0.90;;;8.10;99.90;;;8.36;nan;98849.56;4898590;29;20660;-66
2022/11/22 06:51:32;;;;;;;0.73;0.60;;;8.10;99.90;;;8.49;nan;98846.69;4936135;29;20640;-64
2022/11/22 06:53:59;;;;;;;3.03;0.77;;;8.20;99.90;;;8.30;nan;98857.94;4933655;29;20639;-65
2022/11/22 06:56:38;;;;;;;0.57;0.57;;;8.20;99.90;;;8.36;nan;98853.94;4933316;29;20646;-64
2022/11/22 06:59:06;;;;;;;0.77;0.77;;;8.20;99.90;;;8.46;nan;98859.94;4934712;29;20669;-65
2022/11/22 07:01:36;;;;;;;0.80;0.80;;;8.20;99.90;;;8.48;nan;98852.81;4919061;29;20637;-65
2022/11/22 07:04:04;;;;;;;0.50;0.50;;;8.20;99.90;;;8.51;nan;98855.97;4922652;29;20676;-65
2022/11/22 07:06:36;;;;;;;1.13;0.60;;;8.30;99.90;;;8.43;nan;98855.03;4936697;28;20646;-65
2022/11/22 07:09:09;;;;;;;1.57;1.10;;;8.20;99.90;;;8.43;nan;98863.63;4952399;28;20655;-65
2022/11/22 07:11:37;;;;;;;1.27;1.27;;;8.20;99.90;;;8.44;nan;98864.47;4945639;28;20643;-65
2022/11/22 07:14:05;;;;;;;7.50;1.60;;;8.20;99.90;;;8.42;nan;98867.19;4927845;29;20707;-65
2022/11/22 07:16:36;;;;;;;1.13;0.73;;;8.20;99.90;;;8.47;nan;98872.00;4937943;29;20695;-65
2022/11/22 07:19:04;;;;;;;0.87;0.87;;;8.20;99.90;;;8.54;nan;98860.06;4914355;29;20665;-64
2022/11/22 07:21:31;;;;;;;4.63;0.80;;;8.30;99.90;;;8.56;nan;98868.56;4928803;29;20648;-65
2022/11/22 07:23:58;;;;;;;1.60;0.53;;;8.30;99.90;;;8.43;nan;98878.44;4931497;29;20672;-64
2022/11/22 07:26:25;;;;;;;0.63;0.63;;;8.30;99.90;;;8.35;nan;98876.50;4931636;29;20638;-65
2022/11/22 07:28:52;;;;;;;1.37;0.60;;;8.20;99.90;;;8.36;nan;98878.16;4933701;29;20660;-65
2022/11/22 07:31:20;;;;;;;0.60;0.60;;;8.20;99.90;;;8.32;nan;98882.00;4936800;28;20644;-65
2022/11/22 07:33:47;;;;;;;1.90;0.80;;;8.20;99.90;;;8.27;nan;98883.34;4922252;29;21001;-65
2022/11/22 07:36:19;;;;;;;0.90;0.90;;;8.20;99.90;;;8.31;nan;98882.09;4915699;29;20649;-65
2022/11/22 07:38:47;;;;;;;1.23;0.97;;;8.20;99.90;;;8.39;nan;98888.25;4932940;29;20696;-64
2022/11/22 07:41:15;;;;;;;1.17;1.07;;;8.20;99.90;;;8.59;nan;98899.44;4919057;29;20643;-64
2022/11/22 07:43:43;;;;;;;2.57;1.60;;;8.30;99.90;;;8.65;nan;98905.88;4935498;29;21341;-64
2022/11/22 07:46:29;;;;;;;1.27;1.03;;;8.30;99.90;;;8.77;nan;98913.38;4933165;29;20644;-64
2022/11/22 07:48:58;;;;;;;0.70;0.70;;;8.40;99.90;;;8.61;nan;98918.31;4925845;29;20677;-64
2022/11/22 07:51:26;;;;;;;2.10;0.53;;;8.40;99.90;;;8.30;nan;98924.66;4932927;29;21216;-64
2022/11/22 07:53:55;;;;;;;0.40;0.40;;;8.40;99.90;;;8.24;nan;98923.38;4921390;29;20639;-64
2022/11/22 07:56:22;;;;;;;0.80;0.50;;;8.30;99.90;;;8.40;nan;98912.47;4932735;29;20697;-63
2022/11/22 07:58:49;;;;;;;0.77;0.77;;;8.30;99.90;;;8.61;nan;98913.13;4916367;29;20678;-65
2022/11/22 08:01:17;;;;;;;1.57;1.20;;;8.30;99.90;;;8.71;nan;98919.13;4931641;29;20700;-65
2022/11/22 08:03:45;;;;;;;1.70;0.93;;;8.40;99.90;;;8.83;nan;98928.44;4924543;29;20672;-64
2022/11/22 08:06:13;;;;;;;1.07;0.60;;;8.50;99.90;;;8.55;nan;98930.13;4935831;29;21193;-64
2022/11/22 08:08:40;;;;;;;0.70;0.70;;;8.40;99.90;;;8.48;nan;98929.00;4962325;23;20707;-63
2022/11/22 08:11:08;;;;;;;2.40;1.70;;;8.40;99.90;;;8.47;nan;98942.16;5008874;28;20638;-64
2022/11/22 08:13:35;;;;;;;0.60;0.60;;;8.40;99.90;;;8.48;nan;98939.41;5008705;28;20639;-65
2022/11/22 08:16:12;;;;;;;0.20;0.20;;;8.30;99.90;;;8.41;nan;98947.91;5012962;28;21177;-64
2022/11/22 08:18:40;;;;;;;0.53;0.53;;;8.40;99.90;;;8.40;nan;98960.06;5006609;28;20722;-64
2022/11/22 08:21:12;;;;;;;0.43;0.43;;;8.30;99.90;;;8.47;nan;98958.56;4979601;28;20695;-65
2022/11/22 08:23:41;;;;;;;0.50;0.40;;;8.30;99.90;;;8.43;nan;98954.59;5005034;28;20631;-65
2022/11/22 08:26:11;;;;;;;1.60;0.50;;;8.30;99.90;;;8.45;nan;98970.88;4993273;28;20637;-65
2022/11/22 08:28:40;;;;;;;3.03;0.50;;;8.30;99.90;;;8.40;nan;98961.84;5005052;28;20661;-64
2022/11/22 08:31:14;;;;;;;1.60;0.60;;;8.30;99.90;;;8.58;nan;98966.22;4993391;28;20637;-65
2022/11/22 08:33:41;;;;;;;0.40;0.40;;;8.40;99.90;;;8.52;nan;98958.97;4992591;28;21006;-64
2022/11/22 08:36:09;;;;;;;1.57;0.87;;;8.40;99.90;;;8.51;nan;98959.13;4993032;28;20661;-65
2022/11/22 08:38:36;;;;;;;0.87;0.73;;;8.40;99.90;;;8.59;nan;98961.84;4975039;28;20653;-65
2022/11/22 08:41:05;;;;;;;0.70;0.70;;;8.40;99.90;;;8.53;nan;98957.19;4986505;28;20622;-64
2022/11/22 08:43:32;;;;;;;0.60;0.60;;;8.40;99.90;;;8.42;nan;98967.72;4992867;28;20635;-64
2022/11/22 08:46:00;;;;;;;2.50;0.97;;;8.40;99.90;;;8.71;nan;98959.94;4992920;28;21247;-65
2022/11/22 08:48:30;;;;;;;1.10;0.73;;;8.40;99.90;;;8.75;nan;98966.50;4991999;28;21052;-64
2022/11/22 08:51:04;;;;;;;0.40;0.40;;;8.50;99.90;;;8.67;nan;98961.97;4993725;28;21255;-64
2022/11/22 08:53:33;;;;;;;0.77;0.73;;;8.50;99.90;;;8.70;nan;98956.50;4993770;28;20616;-64
2022/11/22 08:56:02;;;;;;;0.73;0.30;;;8.50;99.90;;;8.78;nan;98956.63;4994136;28;20637;-64
2022/11/22 08:58:34;;;;;;;0.90;0.90;;;8.50;99.90;;;8.88;nan;98957.41;4974403;28;21240;-64
2022/11/22 09:01:14;;;;;;;0.40;0.40;;;8.60;99.90;;;9.11;nan;98966.56;4983814;28;20645;-64
2022/11/22 09:03:43;;;;;;;0.70;0.70;;;8.70;99.90;;;9.11;nan;98970.94;4989372;28;20638;-64
2022/11/22 09:06:14;;;;;;;1.53;0.77;;;8.80;99.90;;;9.08;nan;98971.22;4992440;28;20727;-64
2022/11/22 09:09:00;;;;;;;0.50;0.50;;;8.80;99.90;;;9.21;nan;98964.75;5009345;28;20664;-64
2022/11/22 09:11:47;;;;;;;0.43;0.43;;;8.90;99.90;;;9.40;nan;98969.06;4993420;28;20630;-65
2022/11/22 09:14:14;;;;;;;0.70;0.70;;;9.00;99.90;;;9.58;nan;98958.72;4995527;28;20646;-65
2022/11/22 09:16:41;;;;;;;1.27;0.63;;;9.10;99.90;;;9.37;nan;98958.91;4992587;28;20638;-65
2022/11/22 09:19:08;;;;;;;1.83;1.47;;;9.20;99.90;;;9.68;nan;98949.06;4991052;28;21058;-64
2022/11/22 09:21:35;;;;;;;0.40;0.40;;;9.20;99.90;;;9.51;nan;98947.22;4993659;28;20648;-64
2022/11/22 09:24:03;;;;;;;1.53;0.50;;;9.30;99.90;;;9.70;nan;98949.72;5010304;28;20685;-66
2022/11/22 09:26:30;;;;;;;0.83;0.60;;;9.30;99.90;;;9.62;nan;98952.25;4992234;28;20681;-65
2022/11/22 09:28:57;;;;;;;0.40;0.40;;;9.30;99.90;;;9.69;nan;98964.53;4992698;28;21291;-64
2022/11/22 09:31:24;;;;;;;0.87;0.40;;;9.30;99.90;;;9.71;nan;98967.00;4994452;28;20650;-64
2022/11/22 09:33:51;;;;;;;1.13;0.80;;;9.30;99.90;;;9.83;nan;98973.66;5000283;28;21018;-64
2022/11/22 09:36:22;;;;;;;0.60;0.60;;;9.40;99.90;;;10.07;nan;98979.16;4993687;28;21039;-64
2022/11/22 09:38:51;;;;;;;5.53;1.17;;;9.50;99.90;;;10.03;nan;98968.19;4980159;28;20738;-64
2022/11/22 09:41:43;;;;;;;0.90;0.90;;;9.60;99.90;;;9.84;nan;98962.25;4978997;28;20676;-64
2022/11/22 09:44:26;;;;;;;1.43;0.80;;;9.60;99.90;;;9.97;nan;98962.72;4991975;28;20634;-65
2022/11/22 09:47:40;;;;;;;0.77;0.77;;;9.60;99.90;;;10.32;nan;98955.00;4991520;28;20707;-64
2022/11/22 09:50:24;;;;;;;1.23;0.93;;;9.80;99.90;;;10.50;nan;98952.38;4929036;29;21066;-65
2022/11/22 09:53:13;;;;;;;0.47;0.47;;;9.90;99.90;;;10.49;nan;98943.72;4990286;28;20678;-66
2022/11/22 09:55:44;;;;;;;1.27;0.80;;;10.00;99.90;;;10.50;nan;98942.75;4993633;28;20638;-65
2022/11/22 09:58:29;;;;;;;0.70;0.47;;;10.00;99.90;;;10.34;nan;98947.84;4991813;28;20671;-65
2022/11/22 10:01:12;;;;;;;0.73;0.73;;;10.00;99.90;;;10.21;nan;98942.16;4975792;28;20657;-65
2022/11/22 10:04:09;;;;;;;0.63;0.63;;;9.90;99.90;;;10.00;nan;98933.78;4992063;28;20680;-65
2022/11/22 10:06:41;;;;;;;0.50;0.50;;;9.80;99.90;;;9.96;nan;98935.88;4981330;28;20643;-65
2022/11/22 10:09:38;;;;;;;0.57;0.40;;;9.80;99.90;;;9.81;nan;98929.53;4991504;28;21230;-65
2022/11/22 10:12:47;;;;;;;1.37;0.60;;;9.70;99.90;;;9.62;nan;98936.63;5007005;28;20699;-65
2022/11/22 10:15:45;;;;;;;1.80;0.63;;;9.50;99.90;;;9.63;nan;98938.25;5008231;28;20687;-65
2022/11/22 10:18:44;;;;;;;0.40;0.40;;;9.40;99.90;;;9.50;nan;98932.59;4972300;28;20651;-65
2022/11/22 10:21:13;;;;;;;0.90;0.70;;;9.40;99.90;;;9.53;nan;98933.09;4970112;28;21063;-65
2022/11/22 10:23:42;;;;;;;0.47;0.47;;;9.30;99.90;;;9.66;nan;98946.59;4991649;28;20794;-65
2022/11/22 10:26:31;;;;;;;0.67;0.60;;;9.40;99.90;;;9.64;nan;98942.50;4991668;28;20666;-66
2022/11/22 10:29:29;;;;;;;0.77;0.77;;;9.40;99.90;;;9.53;nan;98950.50;4987036;28;20667;-65
2022/11/22 10:32:27;;;;;;;0.50;0.50;;;9.40;99.90;;;9.46;nan;98947.66;4992898;28;20691;-65
2022/11/22 10:35:16;;;;;;;0.63;0.47;;;9.30;99.90;;;9.74;nan;98946.69;4991154;28;20645;-65
2022/11/22 10:37:59;;;;;;;1.90;0.30;;;9.40;99.90;;;9.92;nan;98938.91;4972015;28;20987;-65
2022/11/22 10:41:15;;;;;;;3.07;0.60;;;9.50;99.90;;;9.84;nan;98931.00;4978583;28;20638;-66
2022/11/22 10:44:34;;;;;;;0.70;0.70;;;9.50;99.90;;;9.83;nan;98947.59;4994027;28;20654;-65
2022/11/22 10:47:44;;;;;;;0.40;0.40;;;9.50;99.90;;;9.67;nan;98947.44;4992023;28;20639;-65
2022/11/22 10:50:37;;;;;;;0.90;0.40;;;9.50;99.90;;;9.78;nan;98947.22;4991982;28;20638;-65
2022/11/22 10:53:28;;;;;;;0.70;0.40;;;9.50;99.90;;;9.95;nan;98926.41;4973707;28;20681;-65
2022/11/22 10:56:37;;;;;;;1.70;0.80;;;9.60;99.90;;;9.86;nan;98936.91;4992147;28;20639;-65
2022/11/22 10:59:26;;;;;;;0.93;0.70;;;9.70;99.90;;;10.16;nan;98936.56;4982928;28;20700;-65
2022/11/22 11:02:31;;;;;;;2.40;0.40;;;9.70;99.90;;;9.94;nan;98944.81;4995429;28;20643;-65
2022/11/22 11:05:03;;;;;;;0.87;0.43;;;9.70;99.90;;;9.91;nan;98937.28;5011408;28;20656;-65
2022/11/22 11:07:31;;;;;;;1.30;0.60;;;9.70;99.90;;;9.86;nan;98942.91;4990691;28;20734;-65
2022/11/22 11:10:04;;;;;;;0.50;0.50;;;9.70;99.90;;;10.05;nan;98939.38;4991014;28;20692;-64
2022/11/22 11:13:05;;;;;;;0.30;0.30;;;9.70;99.90;;;9.85;nan;98928.25;4991762;28;21224;-65
2022/11/22 11:15:45;;;;;;;0.30;0.30;;;9.70;99.90;;;10.10;nan;98934.53;4967200;28;20639;-65
2022/11/22 11:18:31;;;;;;;6.83;0.60;;;9.80;99.90;;;10.13;nan;98931.69;5001759;28;20661;-65
2022/11/22 11:20:58;;;;;;;1.80;0.83;;;9.80;99.90;;;10.00;nan;98937.22;4986016;28;20627;-66
2022/11/22 11:23:25;;;;;;;3.07;1.17;;;9.80;99.90;;;10.14;nan;98933.28;4990926;28;21198;-65
2022/11/22 11:25:52;;;;;;;0.50;0.50;;;9.80;99.90;;;10.18;nan;98929.44;4991008;28;21088;-64